Washington, DC (20006)

4:57 AM EDT on July 28, 2016 (GMT -0400)
The Washington Post | | Change Station

Elev 151 ft 38.90 °N, 77.03 °W | Updated 7 seconds ago

Overcast
Overcast
81.9 °F
Feels Like 86 °F
N
0.9
Wind Variable Wind from NW
Gusts 3.0 mph

Today
High -- | Low -- °F
--% Chance of Precip.
Yesterday
High -- | Low -- °F
Precip. -- in
Pressure 29.90 in
Visibility 10.0 miles
Clouds Overcast 14000 ft
Heat Index 86 °F
Dew Point 72 °F
Humidity 71%
Rainfall 0.00 in
Snow Depth Not available.
6:06 AM 8:22 PM
Waning Crescent, 34% visible
METAR KDCA 280852Z COR 00000KT 10SM OVC140 28/23 A2990 RMK AO2 SLP124 T02780228 56004 $
Pressure 29.90 in
Visibility 10.0 miles
Clouds Overcast 14000 ft
Heat Index 86 °F
Dew Point 72 °F
Humidity 71%
Rainfall 0.00 in
Snow Depth Not available.
6:06 AM 8:22 PM
Waning Crescent, 34% visible
METAR KDCA 280852Z COR 00000KT 10SM OVC140 28/23 A2990 RMK AO2 SLP124 T02780228 56004 $

10-Day Weather Forecast

Almanac

Astronomy

Jul. 28, 2016 Rise Set
Actual Time
Civil Twilight
Nautical Twilight
Astronomical Twilight
Moon
Length of Visible Light
Length of Day
Tomorrow will be .
, % of the Moon is Illuminated

Today's Extremes

State Highs State Lows

Community

WunderPhotos

Upload Photos

1,928,070 photos uploaded!

WunderBlog® & News

Nearby

Air Quality

  Air Quality AQ Index Pollutant
Not available.

Snow Depth

Station Depth Elevation

Earthquake Activity

City Distance Mag. Time & Date
Minimum magnitude displayed is 2.5.

Coastal Water Temperatures

Place Temperature

Stations

Nearby Weather Stations

Station Location Temp. Windchill Dew Point Humidity Wind Precip. Elev Updated Type
                   

Watches & Warnings

There are currently no watches in effect.